sensor_id;sensor_type;location;lat;lon;timestamp;temperature;humidity
935;DHT22;454;53.254;10.400;2023-12-29T05:01:55;6.80;99.90
935;DHT22;454;53.254;10.400;2023-12-29T05:04:22;6.70;99.90
935;DHT22;454;53.254;10.400;2023-12-29T05:06:48;6.80;99.90
935;DHT22;454;53.254;10.400;2023-12-29T05:09:15;6.80;99.90
935;DHT22;454;53.254;10.400;2023-12-29T05:11:42;6.80;99.90
935;DHT22;454;53.254;10.400;2023-12-29T05:14:09;6.80;99.90
935;DHT22;454;53.254;10.400;2023-12-29T05:16:36;6.80;99.90
935;DHT22;454;53.254;10.400;2023-12-29T05:19:04;6.90;99.90
935;DHT22;454;53.254;10.400;2023-12-29T05:21:30;6.90;99.90
935;DHT22;454;53.254;10.400;2023-12-29T05:23:57;6.90;99.90
935;DHT22;454;53.254;10.400;2023-12-29T05:26:24;6.90;99.90
935;DHT22;454;53.254;10.400;2023-12-29T05:28:51;7.00;99.90
935;DHT22;454;53.254;10.400;2023-12-29T05:31:18;7.00;99.90
935;DHT22;454;53.254;10.400;2023-12-29T05:33:45;7.00;99.90
935;DHT22;454;53.254;10.400;2023-12-29T05:36:13;7.00;99.90
935;DHT22;454;53.254;10.400;2023-12-29T05:38:40;7.00;99.90
935;DHT22;454;53.254;10.400;2023-12-29T05:41:07;6.90;99.90
935;DHT22;454;53.254;10.400;2023-12-29T05:43:33;6.90;99.90
935;DHT22;454;53.254;10.400;2023-12-29T05:46:00;6.90;99.90
935;DHT22;454;53.254;10.400;2023-12-29T05:48:27;6.90;99.90
935;DHT22;454;53.254;10.400;2023-12-29T05:50:54;6.90;99.90
935;DHT22;454;53.254;10.400;2023-12-29T05:53:22;6.90;99.90
935;DHT22;454;53.254;10.400;2023-12-29T05:55:48;6.90;99.90
935;DHT22;454;53.254;10.400;2023-12-29T05:58:15;6.90;99.90
935;DHT22;454;53.254;10.400;2023-12-29T06:00:42;6.90;99.90
935;DHT22;454;53.254;10.400;2023-12-29T06:03:10;6.80;99.90
935;DHT22;454;53.254;10.400;2023-12-29T06:05:36;6.80;99.90
935;DHT22;454;53.254;10.400;2023-12-29T06:08:03;6.80;99.90
935;DHT22;454;53.254;10.400;2023-12-29T06:10:32;6.80;99.90
935;DHT22;454;53.254;10.400;2023-12-29T06:12:59;6.80;99.90
935;DHT22;454;53.254;10.400;2023-12-29T06:15:27;6.80;99.90
935;DHT22;454;53.254;10.400;2023-12-29T06:17:54;6.80;99.90
935;DHT22;454;53.254;10.400;2023-12-29T06:20:20;6.80;99.90
935;DHT22;454;53.254;10.400;2023-12-29T06:22:47;6.80;99.90
935;DHT22;454;53.254;10.400;2023-12-29T06:25:14;6.80;99.90
935;DHT22;454;53.254;10.400;2023-12-29T06:27:42;6.80;99.90
935;DHT22;454;53.254;10.400;2023-12-29T06:30:09;6.80;99.90
935;DHT22;454;53.254;10.400;2023-12-29T06:32:37;6.90;99.90
935;DHT22;454;53.254;10.400;2023-12-29T06:35:04;6.90;99.90
935;DHT22;454;53.254;10.400;2023-12-29T06:37:31;6.90;99.90
935;DHT22;454;53.254;10.400;2023-12-29T06:39:58;6.80;99.90
935;DHT22;454;53.254;10.400;2023-12-29T06:42:25;6.90;99.90
935;DHT22;454;53.254;10.400;2023-12-29T06:44:53;6.90;99.90
935;DHT22;454;53.254;10.400;2023-12-29T06:47:20;7.10;99.90
935;DHT22;454;53.254;10.400;2023-12-29T06:49:48;7.30;99.90
935;DHT22;454;53.254;10.400;2023-12-29T06:52:15;7.30;99.90
935;DHT22;454;53.254;10.400;2023-12-29T06:54:42;7.40;99.90
935;DHT22;454;53.254;10.400;2023-12-29T06:57:08;7.50;99.90
935;DHT22;454;53.254;10.400;2023-12-29T06:59:35;7.60;99.90
935;DHT22;454;53.254;10.400;2023-12-29T07:02:04;7.80;99.90
935;DHT22;454;53.254;10.400;2023-12-29T07:04:32;7.90;99.90
935;DHT22;454;53.254;10.400;2023-12-29T07:07:00;8.00;99.90
935;DHT22;454;53.254;10.400;2023-12-29T07:09:27;8.10;99.90
935;DHT22;454;53.254;10.400;2023-12-29T07:11:54;8.10;99.90
935;DHT22;454;53.254;10.400;2023-12-29T07:14:20;8.20;99.90
935;DHT22;454;53.254;10.400;2023-12-29T07:16:47;8.30;99.90
935;DHT22;454;53.254;10.400;2023-12-29T07:19:15;8.30;99.90
935;DHT22;454;53.254;10.400;2023-12-29T07:21:42;8.40;99.90
935;DHT22;454;53.254;10.400;2023-12-29T07:24:09;8.40;99.90
935;DHT22;454;53.254;10.400;2023-12-29T07:26:35;8.50;99.90
935;DHT22;454;53.254;10.400;2023-12-29T07:29:02;8.50;99.90
935;DHT22;454;53.254;10.400;2023-12-29T07:31:29;8.50;99.90
935;DHT22;454;53.254;10.400;2023-12-29T07:33:55;8.50;99.90
935;DHT22;454;53.254;10.400;2023-12-29T07:36:23;8.50;99.90
935;DHT22;454;53.254;10.400;2023-12-29T07:38:50;8.50;99.90
935;DHT22;454;53.254;10.400;2023-12-29T07:41:17;8.50;99.90
935;DHT22;454;53.254;10.400;2023-12-29T07:43:44;8.50;99.90
935;DHT22;454;53.254;10.400;2023-12-29T07:46:10;8.50;99.90
935;DHT22;454;53.254;10.400;2023-12-29T07:48:37;8.50;99.90
935;DHT22;454;53.254;10.400;2023-12-29T07:51:06;8.50;99.90
935;DHT22;454;53.254;10.400;2023-12-29T07:53:34;8.50;99.90
935;DHT22;454;53.254;10.400;2023-12-29T07:56:01;8.60;99.90
935;DHT22;454;53.254;10.400;2023-12-29T07:58:27;8.60;99.90
935;DHT22;454;53.254;10.400;2023-12-29T08:00:54;8.60;99.90
935;DHT22;454;53.254;10.400;2023-12-29T08:03:21;8.70;99.90
935;DHT22;454;53.254;10.400;2023-12-29T08:05:48;8.80;99.90
935;DHT22;454;53.254;10.400;2023-12-29T08:08:14;8.80;99.90
935;DHT22;454;53.254;10.400;2023-12-29T08:10:43;8.80;99.90
935;DHT22;454;53.254;10.400;2023-12-29T08:13:09;8.70;99.90
935;DHT22;454;53.254;10.400;2023-12-29T08:15:36;8.70;99.90
935;DHT22;454;53.254;10.400;2023-12-29T08:18:03;8.70;99.90
935;DHT22;454;53.254;10.400;2023-12-29T08:20:30;8.80;99.90
935;DHT22;454;53.254;10.400;2023-12-29T08:22:57;8.80;99.90
935;DHT22;454;53.254;10.400;2023-12-29T08:25:23;8.80;99.90
935;DHT22;454;53.254;10.400;2023-12-29T08:27:51;8.80;99.90
935;DHT22;454;53.254;10.400;2023-12-29T08:30:18;8.80;99.90
935;DHT22;454;53.254;10.400;2023-12-29T08:32:45;8.80;99.90
935;DHT22;454;53.254;10.400;2023-12-29T08:35:12;8.80;99.90
935;DHT22;454;53.254;10.400;2023-12-29T08:37:39;8.80;99.90
935;DHT22;454;53.254;10.400;2023-12-29T08:40:06;8.80;99.90
935;DHT22;454;53.254;10.400;2023-12-29T08:42:33;8.80;99.90
935;DHT22;454;53.254;10.400;2023-12-29T08:45:02;8.80;99.90
935;DHT22;454;53.254;10.400;2023-12-29T08:47:30;8.80;99.90
935;DHT22;454;53.254;10.400;2023-12-29T08:49:57;8.80;99.90
935;DHT22;454;53.254;10.400;2023-12-29T08:52:23;8.80;99.90
935;DHT22;454;53.254;10.400;2023-12-29T08:54:50;8.80;99.90
935;DHT22;454;53.254;10.400;2023-12-29T08:57:17;8.80;99.90
935;DHT22;454;53.254;10.400;2023-12-29T08:59:43;8.80;99.90
935;DHT22;454;53.254;10.400;2023-12-29T09:02:12;8.80;99.90
935;DHT22;454;53.254;10.400;2023-12-29T09:04:38;8.90;99.90
935;DHT22;454;53.254;10.400;2023-12-29T09:07:05;8.90;99.90
935;DHT22;454;53.254;10.400;2023-12-29T09:09:32;8.90;99.90
935;DHT22;454;53.254;10.400;2023-12-29T09:11:58;8.90;99.90
935;DHT22;454;53.254;10.400;2023-12-29T09:14:25;9.00;99.90
935;DHT22;454;53.254;10.400;2023-12-29T09:16:52;9.00;99.90
935;DHT22;454;53.254;10.400;2023-12-29T09:19:20;9.00;99.90
935;DHT22;454;53.254;10.400;2023-12-29T09:21:47;9.00;99.90
935;DHT22;454;53.254;10.400;2023-12-29T09:24:14;9.00;99.90
935;DHT22;454;53.254;10.400;2023-12-29T09:26:40;9.00;99.90
935;DHT22;454;53.254;10.400;2023-12-29T09:29:07;9.10;99.90
935;DHT22;454;53.254;10.400;2023-12-29T09:31:34;9.20;99.90
935;DHT22;454;53.254;10.400;2023-12-29T09:34:01;9.20;99.90
935;DHT22;454;53.254;10.400;2023-12-29T09:36:29;9.30;99.90
935;DHT22;454;53.254;10.400;2023-12-29T09:38:56;9.30;99.90
935;DHT22;454;53.254;10.400;2023-12-29T09:41:24;9.30;99.90
935;DHT22;454;53.254;10.400;2023-12-29T09:43:52;9.30;99.90
935;DHT22;454;53.254;10.400;2023-12-29T09:46:21;9.30;99.90
935;DHT22;454;53.254;10.400;2023-12-29T09:48:52;9.30;99.90
935;DHT22;454;53.254;10.400;2023-12-29T09:51:19;9.30;99.90
935;DHT22;454;53.254;10.400;2023-12-29T09:53:50;9.30;99.90
935;DHT22;454;53.254;10.400;2023-12-29T09:56:17;9.30;99.90
935;DHT22;454;53.254;10.400;2023-12-29T09:58:47;9.20;99.90
935;DHT22;454;53.254;10.400;2023-12-29T10:01:14;9.00;99.90
935;DHT22;454;53.254;10.400;2023-12-29T10:03:43;8.90;99.90
935;DHT22;454;53.254;10.400;2023-12-29T10:06:13;8.70;99.90
935;DHT22;454;53.254;10.400;2023-12-29T10:08:45;8.50;99.90
935;DHT22;454;53.254;10.400;2023-12-29T10:11:14;8.40;99.90
935;DHT22;454;53.254;10.400;2023-12-29T10:13:42;8.30;99.90
935;DHT22;454;53.254;10.400;2023-12-29T10:16:18;8.20;99.90
935;DHT22;454;53.254;10.400;2023-12-29T10:18:55;8.20;99.90
935;DHT22;454;53.254;10.400;2023-12-29T10:21:27;8.10;99.90
935;DHT22;454;53.254;10.400;2023-12-29T10:23:58;8.20;99.90
935;DHT22;454;53.254;10.400;2023-12-29T10:26:31;8.20;99.90
935;DHT22;454;53.254;10.400;2023-12-29T10:28:58;8.30;99.90
935;DHT22;454;53.254;10.400;2023-12-29T10:31:25;8.30;99.90
935;DHT22;454;53.254;10.400;2023-12-29T10:33:52;8.30;99.90
935;DHT22;454;53.254;10.400;2023-12-29T10:36:19;8.20;99.90
935;DHT22;454;53.254;10.400;2023-12-29T10:38:46;8.20;99.90
935;DHT22;454;53.254;10.400;2023-12-29T10:41:15;8.20;99.90
935;DHT22;454;53.254;10.400;2023-12-29T10:43:44;8.20;99.90
935;DHT22;454;53.254;10.400;2023-12-29T10:46:12;8.20;99.90
935;DHT22;454;53.254;10.400;2023-12-29T10:48:40;8.20;99.90
935;DHT22;454;53.254;10.400;2023-12-29T10:51:07;8.30;99.90
935;DHT22;454;53.254;10.400;2023-12-29T10:53:35;8.30;99.90
935;DHT22;454;53.254;10.400;2023-12-29T10:56:03;8.30;99.90
935;DHT22;454;53.254;10.400;2023-12-29T10:58:30;8.30;99.90
935;DHT22;454;53.254;10.400;2023-12-29T11:00:59;8.40;99.90
935;DHT22;454;53.254;10.400;2023-12-29T11:03:26;8.40;99.90
935;DHT22;454;53.254;10.400;2023-12-29T11:05:59;8.40;99.90
935;DHT22;454;53.254;10.400;2023-12-29T11:08:26;8.40;99.90
935;DHT22;454;53.254;10.400;2023-12-29T11:10:54;8.40;99.90
935;DHT22;454;53.254;10.400;2023-12-29T11:13:21;8.40;99.90
935;DHT22;454;53.254;10.400;2023-12-29T11:15:48;8.40;99.90
935;DHT22;454;53.254;10.400;2023-12-29T11:18:17;8.40;99.90
935;DHT22;454;53.254;10.400;2023-12-29T11:20:45;8.40;99.90
935;DHT22;454;53.254;10.400;2023-12-29T11:23:12;8.50;99.90
935;DHT22;454;53.254;10.400;2023-12-29T11:25:39;8.50;99.90
935;DHT22;454;53.254;10.400;2023-12-29T11:28:09;8.50;99.90
935;DHT22;454;53.254;10.400;2023-12-29T11:30:37;8.50;99.90
935;DHT22;454;53.254;10.400;2023-12-29T11:33:08;8.60;99.90
935;DHT22;454;53.254;10.400;2023-12-29T11:35:43;8.60;99.90
935;DHT22;454;53.254;10.400;2023-12-29T11:38:28;8.60;99.90
935;DHT22;454;53.254;10.400;2023-12-29T11:41:03;8.60;99.90
935;DHT22;454;53.254;10.400;2023-12-29T11:43:32;8.70;99.90
935;DHT22;454;53.254;10.400;2023-12-29T11:45:59;8.70;99.90
935;DHT22;454;53.254;10.400;2023-12-29T11:48:54;8.70;99.90
935;DHT22;454;53.254;10.400;2023-12-29T11:51:30;8.70;99.90
935;DHT22;454;53.254;10.400;2023-12-29T11:53:58;8.70;99.90
935;DHT22;454;53.254;10.400;2023-12-29T11:56:30;8.70;99.90
935;DHT22;454;53.254;10.400;2023-12-29T11:59:12;8.60;99.90
935;DHT22;454;53.254;10.400;2023-12-29T12:01:39;8.60;99.90
935;DHT22;454;53.254;10.400;2023-12-29T12:04:33;8.50;99.90
935;DHT22;454;53.254;10.400;2023-12-29T12:07:03;8.50;99.90
935;DHT22;454;53.254;10.400;2023-12-29T12:09:29;8.40;99.90
935;DHT22;454;53.254;10.400;2023-12-29T12:11:56;8.40;99.90
935;DHT22;454;53.254;10.400;2023-12-29T12:14:43;8.40;99.90
935;DHT22;454;53.254;10.400;2023-12-29T12:17:10;8.40;99.90
935;DHT22;454;53.254;10.400;2023-12-29T12:19:37;8.40;99.90
935;DHT22;454;53.254;10.400;2023-12-29T12:22:06;8.40;99.90
935;DHT22;454;53.254;10.400;2023-12-29T12:24:36;8.40;99.90
935;DHT22;454;53.254;10.400;2023-12-29T12:27:04;8.40;99.90
935;DHT22;454;53.254;10.400;2023-12-29T12:29:36;8.40;99.90
935;DHT22;454;53.254;10.400;2023-12-29T12:32:03;8.40;99.90
935;DHT22;454;53.254;10.400;2023-12-29T12:34:36;8.40;99.90
935;DHT22;454;53.254;10.400;2023-12-29T12:37:03;8.40;99.90
935;DHT22;454;53.254;10.400;2023-12-29T12:39:39;8.40;99.90
935;DHT22;454;53.254;10.400;2023-12-29T12:42:06;8.40;99.90
935;DHT22;454;53.254;10.400;2023-12-29T12:44:33;8.40;99.90
935;DHT22;454;53.254;10.400;2023-12-29T12:47:05;8.40;99.90
935;DHT22;454;53.254;10.400;2023-12-29T12:49:33;8.40;99.90
935;DHT22;454;53.254;10.400;2023-12-29T12:52:00;8.40;99.90
935;DHT22;454;53.254;10.400;2023-12-29T12:54:28;8.40;99.90
935;DHT22;454;53.254;10.400;2023-12-29T12:56:56;8.40;99.90
935;DHT22;454;53.254;10.400;2023-12-29T12:59:23;8.40;99.90
935;DHT22;454;53.254;10.400;2023-12-29T13:01:50;8.50;99.90
935;DHT22;454;53.254;10.400;2023-12-29T13:04:17;8.50;99.90
935;DHT22;454;53.254;10.400;2023-12-29T13:06:44;8.50;99.90
935;DHT22;454;53.254;10.400;2023-12-29T13:09:11;8.50;99.90
935;DHT22;454;53.254;10.400;2023-12-29T13:11:38;8.50;99.90
935;DHT22;454;53.254;10.400;2023-12-29T13:14:07;8.50;99.90
935;DHT22;454;53.254;10.400;2023-12-29T13:16:35;8.50;99.90
935;DHT22;454;53.254;10.400;2023-12-29T13:19:18;8.50;99.90
935;DHT22;454;53.254;10.400;2023-12-29T13:21:48;8.40;99.90
935;DHT22;454;53.254;10.400;2023-12-29T13:24:15;8.40;99.90
935;DHT22;454;53.254;10.400;2023-12-29T13:26:44;8.40;99.90
935;DHT22;454;53.254;10.400;2023-12-29T13:29:13;8.40;99.90
935;DHT22;454;53.254;10.400;2023-12-29T13:31:40;8.40;99.90
935;DHT22;454;53.254;10.400;2023-12-29T13:34:12;8.40;99.90
935;DHT22;454;53.254;10.400;2023-12-29T13:36:43;8.40;99.90
935;DHT22;454;53.254;10.400;2023-12-29T13:39:21;8.30;99.90
935;DHT22;454;53.254;10.400;2023-12-29T13:41:48;8.30;99.90
935;DHT22;454;53.254;10.400;2023-12-29T13:44:18;8.30;99.90
935;DHT22;454;53.254;10.400;2023-12-29T13:46:47;8.30;99.90
935;DHT22;454;53.254;10.400;2023-12-29T13:49:15;8.20;99.90
935;DHT22;454;53.254;10.400;2023-12-29T13:51:42;8.20;99.90
935;DHT22;454;53.254;10.400;2023-12-29T13:54:09;8.20;99.90
935;DHT22;454;53.254;10.400;2023-12-29T13:56:36;8.20;99.90
935;DHT22;454;53.254;10.400;2023-12-29T13:59:03;8.20;99.90
935;DHT22;454;53.254;10.400;2023-12-29T14:01:37;8.30;99.90
935;DHT22;454;53.254;10.400;2023-12-29T14:04:07;8.30;99.90
935;DHT22;454;53.254;10.400;2023-12-29T14:06:39;8.30;99.90
935;DHT22;454;53.254;10.400;2023-12-29T14:09:14;8.30;99.90
935;DHT22;454;53.254;10.400;2023-12-29T14:11:44;8.30;99.90
935;DHT22;454;53.254;10.400;2023-12-29T14:14:11;8.30;99.90
935;DHT22;454;53.254;10.400;2023-12-29T14:16:40;8.30;99.90
935;DHT22;454;53.254;10.400;2023-12-29T14:19:07;8.30;99.90
935;DHT22;454;53.254;10.400;2023-12-29T14:21:34;8.30;99.90
935;DHT22;454;53.254;10.400;2023-12-29T14:24:08;8.30;99.90
935;DHT22;454;53.254;10.400;2023-12-29T14:26:35;8.30;99.90
935;DHT22;454;53.254;10.400;2023-12-29T14:29:05;8.30;99.90
935;DHT22;454;53.254;10.400;2023-12-29T14:31:35;8.30;99.90
935;DHT22;454;53.254;10.400;2023-12-29T14:34:04;8.20;99.90
935;DHT22;454;53.254;10.400;2023-12-29T14:36:31;8.20;99.90
935;DHT22;454;53.254;10.400;2023-12-29T14:38:58;8.20;99.90
935;DHT22;454;53.254;10.400;2023-12-29T14:41:24;8.20;99.90
935;DHT22;454;53.254;10.400;2023-12-29T14:43:51;8.20;99.90
935;DHT22;454;53.254;10.400;2023-12-29T14:46:18;8.20;99.90
935;DHT22;454;53.254;10.400;2023-12-29T14:48:45;8.10;99.90
935;DHT22;454;53.254;10.400;2023-12-29T14:51:14;8.10;99.90
935;DHT22;454;53.254;10.400;2023-12-29T14:53:43;8.10;99.90
935;DHT22;454;53.254;10.400;2023-12-29T14:56:10;8.00;99.90
935;DHT22;454;53.254;10.400;2023-12-29T14:58:37;8.00;99.90
935;DHT22;454;53.254;10.400;2023-12-29T15:01:04;8.00;99.90
935;DHT22;454;53.254;10.400;2023-12-29T15:03:31;8.00;99.90
935;DHT22;454;53.254;10.400;2023-12-29T15:05:57;8.00;99.90
935;DHT22;454;53.254;10.400;2023-12-29T15:08:26;8.00;99.90
935;DHT22;454;53.254;10.400;2023-12-29T15:10:57;8.00;99.90
935;DHT22;454;53.254;10.400;2023-12-29T15:13:24;7.90;99.90
935;DHT22;454;53.254;10.400;2023-12-29T15:15:52;7.80;99.90
935;DHT22;454;53.254;10.400;2023-12-29T15:18:19;7.80;99.90
935;DHT22;454;53.254;10.400;2023-12-29T15:20:46;7.80;99.90
935;DHT22;454;53.254;10.400;2023-12-29T15:23:12;7.70;99.90
935;DHT22;454;53.254;10.400;2023-12-29T15:25:41;7.70;99.90
935;DHT22;454;53.254;10.400;2023-12-29T15:28:08;7.70;99.90
935;DHT22;454;53.254;10.400;2023-12-29T15:30:35;7.70;99.90
935;DHT22;454;53.254;10.400;2023-12-29T15:33:02;7.70;99.90
935;DHT22;454;53.254;10.400;2023-12-29T15:35:28;7.70;99.90
935;DHT22;454;53.254;10.400;2023-12-29T15:37:55;7.70;99.90
935;DHT22;454;53.254;10.400;2023-12-29T15:40:22;7.70;99.90
935;DHT22;454;53.254;10.400;2023-12-29T15:42:50;7.70;99.90
935;DHT22;454;53.254;10.400;2023-12-29T15:45:17;7.70;99.90
935;DHT22;454;53.254;10.400;2023-12-29T15:47:44;7.70;99.90
935;DHT22;454;53.254;10.400;2023-12-29T15:50:11;7.70;99.90
935;DHT22;454;53.254;10.400;2023-12-29T15:52:37;7.70;99.90
935;DHT22;454;53.254;10.400;2023-12-29T15:55:05;7.80;99.90
935;DHT22;454;53.254;10.400;2023-12-29T15:57:32;7.80;99.90
935;DHT22;454;53.254;10.400;2023-12-29T16:00:00;7.80;99.90
935;DHT22;454;53.254;10.400;2023-12-29T16:02:28;7.80;99.90
935;DHT22;454;53.254;10.400;2023-12-29T16:04:55;7.80;99.90
935;DHT22;454;53.254;10.400;2023-12-29T16:07:22;7.80;99.90
935;DHT22;454;53.254;10.400;2023-12-29T16:09:49;7.70;99.90
935;DHT22;454;53.254;10.400;2023-12-29T16:12:15;7.70;99.90
935;DHT22;454;53.254;10.400;2023-12-29T16:14:42;7.70;99.90
935;DHT22;454;53.254;10.400;2023-12-29T16:17:10;7.70;99.90
935;DHT22;454;53.254;10.400;2023-12-29T16:19:37;7.70;99.90
935;DHT22;454;53.254;10.400;2023-12-29T16:22:04;7.80;99.90
935;DHT22;454;53.254;10.400;2023-12-29T16:24:31;7.80;99.90
935;DHT22;454;53.254;10.400;2023-12-29T16:26:58;7.80;99.90
935;DHT22;454;53.254;10.400;2023-12-29T16:29:24;7.80;99.90
935;DHT22;454;53.254;10.400;2023-12-29T16:31:51;7.90;99.90
935;DHT22;454;53.254;10.400;2023-12-29T16:34:19;7.90;99.90
935;DHT22;454;53.254;10.400;2023-12-29T16:36:55;7.90;99.90
935;DHT22;454;53.254;10.400;2023-12-29T16:39:22;7.90;99.90
935;DHT22;454;53.254;10.400;2023-12-29T16:41:49;7.90;99.90
935;DHT22;454;53.254;10.400;2023-12-29T16:44:16;7.90;99.90
935;DHT22;454;53.254;10.400;2023-12-29T16:46:43;7.90;99.90
935;DHT22;454;53.254;10.400;2023-12-29T16:49:10;8.00;99.90
935;DHT22;454;53.254;10.400;2023-12-29T16:51:38;8.00;99.90
935;DHT22;454;53.254;10.400;2023-12-29T16:54:04;8.00;99.90
935;DHT22;454;53.254;10.400;2023-12-29T16:56:32;8.00;99.90
935;DHT22;454;53.254;10.400;2023-12-29T16:58:58;8.10;99.90
935;DHT22;454;53.254;10.400;2023-12-29T17:01:28;8.10;99.90
935;DHT22;454;53.254;10.400;2023-12-29T17:03:55;8.10;99.90
935;DHT22;454;53.254;10.400;2023-12-29T17:06:21;8.10;99.90
935;DHT22;454;53.254;10.400;2023-12-29T17:08:49;8.00;99.90
935;DHT22;454;53.254;10.400;2023-12-29T17:11:16;8.00;99.90
935;DHT22;454;53.254;10.400;2023-12-29T17:13:43;8.10;99.90
935;DHT22;454;53.254;10.400;2023-12-29T17:16:10;8.10;99.90
935;DHT22;454;53.254;10.400;2023-12-29T17:18:37;8.10;99.90
935;DHT22;454;53.254;10.400;2023-12-29T17:21:04;8.00;99.90
935;DHT22;454;53.254;10.400;2023-12-29T17:23:31;8.00;99.90
935;DHT22;454;53.254;10.400;2023-12-29T17:25:59;8.00;99.90
935;DHT22;454;53.254;10.400;2023-12-29T17:28:26;8.10;99.90
935;DHT22;454;53.254;10.400;2023-12-29T17:30:53;8.10;99.90
935;DHT22;454;53.254;10.400;2023-12-29T17:33:20;8.00;99.90
935;DHT22;454;53.254;10.400;2023-12-29T17:35:47;8.00;99.90
935;DHT22;454;53.254;10.400;2023-12-29T17:38:13;8.00;99.90
935;DHT22;454;53.254;10.400;2023-12-29T17:40:40;8.00;99.90
935;DHT22;454;53.254;10.400;2023-12-29T17:43:08;8.00;99.90
935;DHT22;454;53.254;10.400;2023-12-29T17:45:35;7.90;99.90
935;DHT22;454;53.254;10.400;2023-12-29T17:48:02;8.00;99.90
935;DHT22;454;53.254;10.400;2023-12-29T17:50:29;7.90;99.90
935;DHT22;454;53.254;10.400;2023-12-29T17:52:55;7.90;99.90
935;DHT22;454;53.254;10.400;2023-12-29T17:55:22;7.90;99.90
935;DHT22;454;53.254;10.400;2023-12-29T17:57:49;7.90;99.90
935;DHT22;454;53.254;10.400;2023-12-29T18:00:18;7.90;99.90
935;DHT22;454;53.254;10.400;2023-12-29T18:02:44;7.90;99.90
935;DHT22;454;53.254;10.400;2023-12-29T18:05:11;7.90;99.90
935;DHT22;454;53.254;10.400;2023-12-29T18:07:38;7.90;99.90
935;DHT22;454;53.254;10.400;2023-12-29T18:10:05;7.90;99.90
935;DHT22;454;53.254;10.400;2023-12-29T18:12:34;7.80;99.90
935;DHT22;454;53.254;10.400;2023-12-29T18:15:00;7.80;99.90
935;DHT22;454;53.254;10.400;2023-12-29T18:17:28;7.80;99.90
935;DHT22;454;53.254;10.400;2023-12-29T18:19:58;7.70;99.90
935;DHT22;454;53.254;10.400;2023-12-29T18:22:25;7.70;99.90
935;DHT22;454;53.254;10.400;2023-12-29T18:24:52;7.70;99.90
935;DHT22;454;53.254;10.400;2023-12-29T18:27:18;7.70;99.90
935;DHT22;454;53.254;10.400;2023-12-29T18:29:45;7.60;99.90
935;DHT22;454;53.254;10.400;2023-12-29T18:32:12;7.60;99.90
935;DHT22;454;53.254;10.400;2023-12-29T18:34:40;7.60;99.90
935;DHT22;454;53.254;10.400;2023-12-29T18:37:07;7.70;99.90
935;DHT22;454;53.254;10.400;2023-12-29T18:39:34;7.70;99.90
935;DHT22;454;53.254;10.400;2023-12-29T18:42:02;7.70;99.90
935;DHT22;454;53.254;10.400;2023-12-29T18:44:30;7.70;99.90
935;DHT22;454;53.254;10.400;2023-12-29T18:46:57;7.70;99.90
935;DHT22;454;53.254;10.400;2023-12-29T18:49:24;7.70;99.90
935;DHT22;454;53.254;10.400;2023-12-29T18:51:52;7.70;99.90
935;DHT22;454;53.254;10.400;2023-12-29T18:54:20;7.70;99.90
935;DHT22;454;53.254;10.400;2023-12-29T18:56:47;7.70;99.90
935;DHT22;454;53.254;10.400;2023-12-29T18:59:14;7.70;99.90
935;DHT22;454;53.254;10.400;2023-12-29T19:01:45;7.70;99.90
935;DHT22;454;53.254;10.400;2023-12-29T19:04:12;7.70;99.90
935;DHT22;454;53.254;10.400;2023-12-29T19:06:39;7.70;99.90
935;DHT22;454;53.254;10.400;2023-12-29T19:09:07;7.80;99.90
935;DHT22;454;53.254;10.400;2023-12-29T19:11:36;7.80;99.90
935;DHT22;454;53.254;10.400;2023-12-29T19:14:03;7.80;99.90
935;DHT22;454;53.254;10.400;2023-12-29T19:16:30;7.80;99.90
935;DHT22;454;53.254;10.400;2023-12-29T19:18:57;7.80;99.90
935;DHT22;454;53.254;10.400;2023-12-29T19:21:24;7.80;99.90
935;DHT22;454;53.254;10.400;2023-12-29T19:23:53;7.80;99.90
935;DHT22;454;53.254;10.400;2023-12-29T19:26:23;7.80;99.90
935;DHT22;454;53.254;10.400;2023-12-29T19:28:52;7.80;99.90
935;DHT22;454;53.254;10.400;2023-12-29T19:31:21;7.80;99.90
935;DHT22;454;53.254;10.400;2023-12-29T19:33:50;7.90;99.90
935;DHT22;454;53.254;10.400;2023-12-29T19:36:18;8.00;99.90
935;DHT22;454;53.254;10.400;2023-12-29T19:38:45;8.10;99.90
935;DHT22;454;53.254;10.400;2023-12-29T19:41:15;8.10;99.90
935;DHT22;454;53.254;10.400;2023-12-29T19:43:43;8.20;99.90
935;DHT22;454;53.254;10.400;2023-12-29T19:46:10;8.10;99.90
935;DHT22;454;53.254;10.400;2023-12-29T19:48:38;8.10;99.90
935;DHT22;454;53.254;10.400;2023-12-29T19:51:04;8.00;99.90
935;DHT22;454;53.254;10.400;2023-12-29T19:53:32;7.90;99.90
935;DHT22;454;53.254;10.400;2023-12-29T19:55:59;7.90;99.90
935;DHT22;454;53.254;10.400;2023-12-29T19:58:26;7.90;99.90
935;DHT22;454;53.254;10.400;2023-12-29T20:00:55;7.80;99.90
935;DHT22;454;53.254;10.400;2023-12-29T20:03:22;7.80;99.90
935;DHT22;454;53.254;10.400;2023-12-29T20:05:49;7.80;99.90
935;DHT22;454;53.254;10.400;2023-12-29T20:08:16;7.80;99.90
935;DHT22;454;53.254;10.400;2023-12-29T20:10:43;7.70;99.90
935;DHT22;454;53.254;10.400;2023-12-29T20:13:10;7.70;99.90
935;DHT22;454;53.254;10.400;2023-12-29T20:15:37;7.60;99.90
935;DHT22;454;53.254;10.400;2023-12-29T20:18:05;7.50;99.90
935;DHT22;454;53.254;10.400;2023-12-29T20:20:32;7.50;99.90
935;DHT22;454;53.254;10.400;2023-12-29T20:22:59;7.40;99.90
935;DHT22;454;53.254;10.400;2023-12-29T20:25:26;7.30;99.90
935;DHT22;454;53.254;10.400;2023-12-29T20:27:52;7.20;99.90
935;DHT22;454;53.254;10.400;2023-12-29T20:30:19;7.20;99.90
935;DHT22;454;53.254;10.400;2023-12-29T20:32:46;7.10;99.90
935;DHT22;454;53.254;10.400;2023-12-29T20:35:14;7.00;99.90
935;DHT22;454;53.254;10.400;2023-12-29T20:37:41;6.90;99.90
935;DHT22;454;53.254;10.400;2023-12-29T20:40:08;6.90;99.90
935;DHT22;454;53.254;10.400;2023-12-29T20:42:36;6.90;99.90
935;DHT22;454;53.254;10.400;2023-12-29T20:45:05;6.90;99.90
935;DHT22;454;53.254;10.400;2023-12-29T20:47:32;6.90;99.90
935;DHT22;454;53.254;10.400;2023-12-29T20:49:58;6.90;99.90
935;DHT22;454;53.254;10.400;2023-12-29T20:52:27;6.90;99.90
935;DHT22;454;53.254;10.400;2023-12-29T20:54:53;6.90;99.90
935;DHT22;454;53.254;10.400;2023-12-29T20:57:20;6.90;99.90
935;DHT22;454;53.254;10.400;2023-12-29T20:59:49;6.80;99.90
935;DHT22;454;53.254;10.400;2023-12-29T21:02:16;6.80;99.90
935;DHT22;454;53.254;10.400;2023-12-29T21:04:42;6.90;99.90
935;DHT22;454;53.254;10.400;2023-12-29T21:07:09;6.90;99.90
935;DHT22;454;53.254;10.400;2023-12-29T21:09:37;6.80;99.90
935;DHT22;454;53.254;10.400;2023-12-29T21:12:05;6.80;99.90
935;DHT22;454;53.254;10.400;2023-12-29T21:14:32;6.70;99.90
935;DHT22;454;53.254;10.400;2023-12-29T21:16:58;6.70;99.90
935;DHT22;454;53.254;10.400;2023-12-29T21:19:27;6.70;99.90
935;DHT22;454;53.254;10.400;2023-12-29T21:21:53;6.70;99.90
935;DHT22;454;53.254;10.400;2023-12-29T21:24:20;6.70;99.90
935;DHT22;454;53.254;10.400;2023-12-29T21:26:48;6.70;99.90
935;DHT22;454;53.254;10.400;2023-12-29T21:29:15;6.70;99.90
935;DHT22;454;53.254;10.400;2023-12-29T21:31:41;6.60;99.90
935;DHT22;454;53.254;10.400;2023-12-29T21:34:09;6.60;99.90
935;DHT22;454;53.254;10.400;2023-12-29T21:36:36;6.60;99.90
935;DHT22;454;53.254;10.400;2023-12-29T21:39:03;6.60;99.90